Time;durP1;ratioP1;P1;durP2;ratioP2;P2;SDS_P1;SDS_P2;PMS_P1;PMS_P2;Temp;Humidity;BMP_temperature;BMP_pressure;BME280_temperature;BME280_humidity;BME280_pressure;Samples;Min_cycle;Max_cycle;Signal;HPM_P1;HPM_P2
2021/11/12 00:04:56;;;;;;;23.70;20.60;;;;;;;;;;5059111;28;24407;-64
2021/11/12 00:13:04;;;;;;;24.08;19.73;;;;;;;;;;5061129;28;24398;-62
2021/11/12 00:15:29;;;;;;;22.17;19.75;;;;;;;;;;5059416;28;24522;-63
2021/11/12 00:17:55;;;;;;;22.93;19.30;;;;;;;;;;5058062;28;24521;-62
2021/11/12 00:20:20;;;;;;;22.20;19.50;;;;;;;;;;5058028;28;24429;-61
2021/11/12 00:22:45;;;;;;;23.20;20.27;;;;;;;;;;5058286;28;24427;-61
2021/11/12 00:25:11;;;;;;;23.10;19.08;;;;;;;;;;5058522;28;24450;-61
2021/11/12 00:27:37;;;;;;;22.90;20.30;;;;;;;;;;5075950;28;24514;-62
2021/11/12 00:40:26;;;;;;;23.15;19.42;;;;;;;;;;5062089;28;24422;-61
2021/11/12 00:45:26;;;;;;;23.92;19.88;;;;;;;;;;5059130;28;24515;-61
2021/11/12 00:47:55;;;;;;;23.08;19.42;;;;;;;;;;5055879;28;24984;-62
2021/11/12 00:55:18;;;;;;;25.33;20.50;;;;;;;;;;5061266;28;24415;-62
2021/11/12 00:57:44;;;;;;;21.52;18.90;;;;;;;;;;5062384;28;24417;-61
2021/11/12 01:00:11;;;;;;;22.98;19.20;;;;;;;;;;5059982;28;24426;-62
2021/11/12 01:02:36;;;;;;;23.73;20.70;;;;;;;;;;5048013;28;24506;-62
2021/11/12 01:05:02;;;;;;;23.10;18.50;;;;;;;;;;5059668;28;25019;-62
2021/11/12 01:07:29;;;;;;;22.50;19.63;;;;;;;;;;5062407;28;24417;-62
2021/11/12 01:09:54;;;;;;;23.00;19.65;;;;;;;;;;5060947;28;24407;-62
2021/11/12 01:12:19;;;;;;;22.90;19.23;;;;;;;;;;5059291;28;24526;-62
2021/11/12 01:14:45;;;;;;;22.73;18.57;;;;;;;;;;5059551;28;24430;-61
2021/11/12 01:17:10;;;;;;;23.77;19.97;;;;;;;;;;5059517;28;24851;-62
2021/11/12 01:19:37;;;;;;;24.47;19.70;;;;;;;;;;5060040;28;24456;-62
2021/11/12 01:22:03;;;;;;;22.45;18.80;;;;;;;;;;5063422;28;24431;-61
2021/11/12 01:24:28;;;;;;;21.13;18.75;;;;;;;;;;5062474;28;24514;-61
2021/11/12 01:26:53;;;;;;;22.27;19.27;;;;;;;;;;5063739;28;24510;-62
2021/11/12 01:29:18;;;;;;;20.98;18.67;;;;;;;;;;5065531;28;24498;-61
2021/11/12 01:31:44;;;;;;;22.25;19.60;;;;;;;;;;5061560;28;24466;-62
2021/11/12 01:34:10;;;;;;;24.00;18.57;;;;;;;;;;5057188;28;24447;-61
2021/11/12 01:36:40;;;;;;;24.13;19.60;;;;;;;;;;5058623;28;24526;-61
2021/11/12 01:39:10;;;;;;;25.90;19.90;;;;;;;;;;5062510;28;24862;-61
2021/11/12 01:41:38;;;;;;;21.63;18.55;;;;;;;;;;5063160;28;24410;-61
2021/11/12 01:44:06;;;;;;;22.90;18.35;;;;;;;;;;5054782;28;24426;-61
2021/11/12 01:52:19;;;;;;;21.17;18.70;;;;;;;;;;5051860;28;24841;-62
2021/11/12 01:54:55;;;;;;;21.77;18.80;;;;;;;;;;5059227;28;24442;-63
2021/11/12 01:57:48;;;;;;;22.42;18.95;;;;;;;;;;5052580;28;24554;-62
2021/11/12 02:00:14;;;;;;;22.70;18.42;;;;;;;;;;5080498;28;24857;-62
2021/11/12 02:02:40;;;;;;;22.08;18.52;;;;;;;;;;5062959;28;24411;-62
2021/11/12 02:05:05;;;;;;;20.38;17.90;;;;;;;;;;5059063;28;24471;-62
2021/11/12 02:07:33;;;;;;;19.90;17.30;;;;;;;;;;5062603;28;24438;-61
2021/11/12 02:09:58;;;;;;;19.02;16.30;;;;;;;;;;5061926;28;25013;-62
2021/11/12 02:12:33;;;;;;;22.00;17.80;;;;;;;;;;5063586;28;24422;-62
2021/11/12 02:14:59;;;;;;;23.48;18.40;;;;;;;;;;5060666;28;24422;-62
2021/11/12 02:17:30;;;;;;;20.80;18.55;;;;;;;;;;5060951;28;25251;-62
2021/11/12 02:20:12;;;;;;;20.67;17.75;;;;;;;;;;5062643;28;24570;-62
2021/11/12 02:22:38;;;;;;;21.45;17.40;;;;;;;;;;5051692;28;24426;-62
2021/11/12 02:25:13;;;;;;;20.40;17.27;;;;;;;;;;5077360;28;24773;-62
2021/11/12 02:30:16;;;;;;;22.10;18.73;;;;;;;;;;5058299;28;24445;-62
2021/11/12 02:32:41;;;;;;;21.20;18.13;;;;;;;;;;5059474;28;24805;-61
2021/11/12 02:35:07;;;;;;;20.83;16.98;;;;;;;;;;5064595;28;24426;-62
2021/11/12 02:37:32;;;;;;;20.07;16.77;;;;;;;;;;5064909;28;24450;-62
2021/11/12 02:39:58;;;;;;;21.53;17.53;;;;;;;;;;5061358;28;24499;-63
2021/11/12 02:42:24;;;;;;;22.60;18.40;;;;;;;;;;5059141;28;25773;-62
2021/11/12 02:44:49;;;;;;;21.98;18.30;;;;;;;;;;5053763;28;24437;-63
2021/11/12 02:47:16;;;;;;;22.33;18.07;;;;;;;;;;5063911;28;24781;-62
2021/11/12 02:49:41;;;;;;;20.20;17.60;;;;;;;;;;5064260;28;24624;-62
2021/11/12 02:52:08;;;;;;;20.90;17.87;;;;;;;;;;5062059;28;24422;-62
2021/11/12 02:54:34;;;;;;;21.77;18.27;;;;;;;;;;5054962;28;24932;-62
2021/11/12 02:57:00;;;;;;;21.15;17.50;;;;;;;;;;5058166;28;24549;-62
2021/11/12 02:59:26;;;;;;;23.83;18.67;;;;;;;;;;5058953;28;24523;-62
2021/11/12 03:01:51;;;;;;;20.33;17.70;;;;;;;;;;5063217;28;24856;-62
2021/11/12 03:04:17;;;;;;;23.37;19.43;;;;;;;;;;5062239;28;24422;-62
2021/11/12 03:06:43;;;;;;;24.80;18.90;;;;;;;;;;5057020;28;24776;-62
2021/11/12 03:09:10;;;;;;;23.50;18.43;;;;;;;;;;5057436;28;24585;-62
2021/11/12 03:11:35;;;;;;;23.17;19.10;;;;;;;;;;5061712;28;24557;-62
2021/11/12 03:14:01;;;;;;;23.57;18.47;;;;;;;;;;5062238;28;24893;-62
2021/11/12 03:16:26;;;;;;;23.07;18.83;;;;;;;;;;5061924;28;25094;-62
2021/11/12 03:18:52;;;;;;;22.43;18.67;;;;;;;;;;5060298;28;24784;-62
2021/11/12 03:21:20;;;;;;;23.13;19.08;;;;;;;;;;5059798;28;24450;-61
2021/11/12 03:24:24;;;;;;;23.23;18.10;;;;;;;;;;5058875;28;24415;-62
2021/11/12 03:26:43;;;;;;;21.27;17.88;;;;;;;;;;5052912;28;24445;-63
2021/11/12 03:59:55;;;;;;;21.73;16.80;;;;;;;;;;5053551;28;24395;-63
2021/11/12 04:05:13;;;;;;;21.40;17.50;;;;;;;;;;5057319;28;25469;-63
2021/11/12 04:21:30;;;;;;;20.75;17.00;;;;;;;;;;5048175;28;24576;-63
2021/11/12 04:40:27;;;;;;;22.63;17.98;;;;;;;;;;5057487;28;24410;-63
2021/11/12 05:46:08;;;;;;;24.58;20.30;;;;;;;;;;5053702;28;24998;-64
2021/11/12 05:51:27;;;;;;;24.27;21.48;;;;;;;;;;5057057;28;25024;-63
2021/11/12 05:56:37;;;;;;;26.27;19.35;;;;;;;;;;5046769;28;24426;-64
2021/11/12 05:59:02;;;;;;;25.93;19.80;;;;;;;;;;5045433;28;24415;-63
2021/11/12 06:01:29;;;;;;;28.60;23.70;;;;;;;;;;5051614;28;24581;-63
2021/11/12 06:03:55;;;;;;;25.55;21.60;;;;;;;;;;5050951;28;24691;-63
2021/11/12 06:06:20;;;;;;;25.80;20.42;;;;;;;;;;5050285;28;25249;-63
2021/11/12 06:08:45;;;;;;;21.10;18.20;;;;;;;;;;5053646;28;24518;-64
2021/11/12 06:11:10;;;;;;;24.73;18.70;;;;;;;;;;5049155;28;24434;-64
2021/11/12 06:13:36;;;;;;;23.97;19.20;;;;;;;;;;5054082;28;24931;-64
2021/11/12 06:16:01;;;;;;;23.00;18.63;;;;;;;;;;5059267;28;24848;-64
2021/11/12 06:18:26;;;;;;;20.15;17.23;;;;;;;;;;5059552;28;24418;-64
2021/11/12 06:20:52;;;;;;;20.23;16.53;;;;;;;;;;5063041;28;24453;-63
2021/11/12 06:23:19;;;;;;;22.88;17.48;;;;;;;;;;5058930;28;24485;-63
2021/11/12 06:25:44;;;;;;;17.92;15.88;;;;;;;;;;5053455;28;24419;-63
2021/11/12 06:28:09;;;;;;;26.03;18.07;;;;;;;;;;5060724;28;24419;-64
2021/11/12 06:30:34;;;;;;;22.25;16.30;;;;;;;;;;5064874;28;24682;-64
2021/11/12 06:32:59;;;;;;;20.40;16.23;;;;;;;;;;5062920;28;25217;-63
2021/11/12 06:35:26;;;;;;;22.30;18.43;;;;;;;;;;5059390;28;24419;-64
2021/11/12 06:37:52;;;;;;;20.25;16.55;;;;;;;;;;5059000;28;24994;-65
2021/11/12 06:40:21;;;;;;;22.40;16.00;;;;;;;;;;5063199;28;24518;-64
2021/11/12 06:43:01;;;;;;;22.97;19.23;;;;;;;;;;5064869;28;24406;-64
2021/11/12 06:50:36;;;;;;;18.95;16.05;;;;;;;;;;5058877;28;24465;-64
2021/11/12 06:53:02;;;;;;;19.63;15.82;;;;;;;;;;5063316;28;24423;-63
2021/11/12 06:55:28;;;;;;;20.87;16.67;;;;;;;;;;5064724;28;24450;-64
2021/11/12 06:57:53;;;;;;;19.70;15.90;;;;;;;;;;5062624;28;24478;-63
2021/11/12 07:00:19;;;;;;;17.57;14.90;;;;;;;;;;5059694;28;25045;-63
2021/11/12 07:02:45;;;;;;;18.83;15.60;;;;;;;;;;5065814;28;24410;-63
2021/11/12 07:05:10;;;;;;;19.40;15.30;;;;;;;;;;5062777;28;24415;-62
2021/11/12 07:07:36;;;;;;;19.80;16.50;;;;;;;;;;5072823;28;24990;-62
2021/11/12 07:10:02;;;;;;;16.67;14.53;;;;;;;;;;5070934;28;25242;-62
2021/11/12 07:12:27;;;;;;;19.08;15.68;;;;;;;;;;5059969;28;24418;-62
2021/11/12 07:14:52;;;;;;;18.87;15.87;;;;;;;;;;5059915;28;24538;-63
2021/11/12 07:17:18;;;;;;;18.20;15.13;;;;;;;;;;5063506;28;25032;-63
2021/11/12 07:19:43;;;;;;;21.30;16.30;;;;;;;;;;5063537;28;25005;-62
2021/11/12 07:22:09;;;;;;;22.80;18.08;;;;;;;;;;5057974;28;24421;-63
2021/11/12 07:24:35;;;;;;;24.10;18.02;;;;;;;;;;5058627;28;24499;-63
2021/11/12 07:27:00;;;;;;;22.50;15.68;;;;;;;;;;5061662;28;24777;-64
2021/11/12 07:29:27;;;;;;;23.50;17.93;;;;;;;;;;5063809;28;25222;-64
2021/11/12 07:31:54;;;;;;;22.45;16.17;;;;;;;;;;5061896;28;24425;-63
2021/11/12 07:34:19;;;;;;;20.85;15.75;;;;;;;;;;5059950;28;24448;-63
2021/11/12 07:36:51;;;;;;;20.00;15.57;;;;;;;;;;5059314;28;24431;-66
2021/11/12 07:39:22;;;;;;;20.50;15.90;;;;;;;;;;5057990;28;24399;-64
2021/11/12 07:44:37;;;;;;;20.42;15.70;;;;;;;;;;5063464;28;24741;-63
2021/11/12 07:47:16;;;;;;;19.05;14.18;;;;;;;;;;5059387;28;24994;-63
2021/11/12 07:49:52;;;;;;;19.63;14.57;;;;;;;;;;5059482;28;24979;-64
2021/11/12 07:52:18;;;;;;;18.83;15.02;;;;;;;;;;5059519;28;24438;-64
2021/11/12 07:54:44;;;;;;;20.25;15.50;;;;;;;;;;5057970;28;24568;-64
2021/11/12 07:57:10;;;;;;;21.45;16.17;;;;;;;;;;5062885;28;24979;-63
2021/11/12 07:59:36;;;;;;;22.05;17.10;;;;;;;;;;5063080;28;24419;-64
2021/11/12 08:02:02;;;;;;;21.33;16.77;;;;;;;;;;5056986;28;24484;-63
2021/11/12 08:04:27;;;;;;;18.88;14.90;;;;;;;;;;5058072;28;24398;-63
2021/11/12 08:06:55;;;;;;;20.65;16.08;;;;;;;;;;5059603;28;24428;-64
2021/11/12 08:09:24;;;;;;;20.77;16.45;;;;;;;;;;5062416;28;24421;-63
2021/11/12 08:21:53;;;;;;;19.57;15.70;;;;;;;;;;5057090;28;24387;-63
2021/11/12 08:27:24;;;;;;;19.10;14.98;;;;;;;;;;5060352;28;24994;-63
2021/11/12 08:30:11;;;;;;;21.13;16.60;;;;;;;;;;5062259;28;24418;-63
2021/11/12 08:38:01;;;;;;;20.47;17.27;;;;;;;;;;5057826;28;24465;-64
2021/11/12 08:40:40;;;;;;;28.88;23.63;;;;;;;;;;5062148;28;24407;-64
2021/11/12 08:43:11;;;;;;;21.05;16.75;;;;;;;;;;5050226;28;24443;-63
2021/11/12 08:45:40;;;;;;;21.15;16.45;;;;;;;;;;5062091;28;25014;-64
2021/11/12 08:48:11;;;;;;;17.90;15.27;;;;;;;;;;5039092;28;24414;-64
2021/11/12 08:50:37;;;;;;;20.17;16.88;;;;;;;;;;5057152;28;24954;-62
2021/11/12 08:53:11;;;;;;;18.00;15.32;;;;;;;;;;5058742;28;24923;-63
2021/11/12 08:55:37;;;;;;;18.25;14.90;;;;;;;;;;5057941;28;24967;-63
2021/11/12 08:58:05;;;;;;;20.60;15.15;;;;;;;;;;5061686;28;24808;-63
2021/11/12 09:00:31;;;;;;;19.13;15.15;;;;;;;;;;5062490;28;24421;-63
2021/11/12 09:02:57;;;;;;;17.67;14.57;;;;;;;;;;5058641;28;24394;-63
2021/11/12 09:05:23;;;;;;;19.98;16.50;;;;;;;;;;5056682;28;24975;-63
2021/11/12 09:07:48;;;;;;;15.70;13.68;;;;;;;;;;5057999;28;24902;-62
2021/11/12 09:10:14;;;;;;;17.10;13.57;;;;;;;;;;5060082;28;24730;-61
2021/11/12 09:12:42;;;;;;;17.37;14.20;;;;;;;;;;5061863;28;24472;-62
2021/11/12 09:15:14;;;;;;;16.90;13.10;;;;;;;;;;5059958;28;24765;-62
2021/11/12 09:17:46;;;;;;;14.63;12.63;;;;;;;;;;5060327;28;24800;-63
2021/11/12 09:20:11;;;;;;;15.68;12.82;;;;;;;;;;5055910;28;24911;-63
2021/11/12 09:22:37;;;;;;;16.50;13.18;;;;;;;;;;5056325;28;24514;-63
2021/11/12 09:25:02;;;;;;;16.07;12.33;;;;;;;;;;5061631;28;24436;-63
2021/11/12 09:27:27;;;;;;;14.60;12.20;;;;;;;;;;5062221;28;24456;-63
2021/11/12 09:29:52;;;;;;;15.17;12.10;;;;;;;;;;5059648;28;24421;-62
2021/11/12 09:32:18;;;;;;;15.60;13.45;;;;;;;;;;5061881;28;24907;-63
2021/11/12 09:34:44;;;;;;;15.83;12.90;;;;;;;;;;5060096;28;24463;-62
2021/11/12 09:37:10;;;;;;;16.13;13.30;;;;;;;;;;5059283;28;24526;-63
2021/11/12 09:39:37;;;;;;;16.88;13.48;;;;;;;;;;5059618;28;24403;-63
2021/11/12 09:42:04;;;;;;;18.60;12.90;;;;;;;;;;5065640;28;24426;-63
2021/11/12 09:44:30;;;;;;;17.00;14.20;;;;;;;;;;5065734;28;24429;-63
2021/11/12 09:46:56;;;;;;;15.30;12.30;;;;;;;;;;5046094;28;24425;-63
2021/11/12 09:49:21;;;;;;;13.65;11.70;;;;;;;;;;5059513;28;24445;-63
2021/11/12 09:51:46;;;;;;;15.17;12.33;;;;;;;;;;5061544;28;24426;-62
2021/11/12 09:54:12;;;;;;;12.98;11.50;;;;;;;;;;5061508;28;24679;-62
2021/11/12 09:56:37;;;;;;;14.67;11.87;;;;;;;;;;5063817;28;24418;-62
2021/11/12 09:59:03;;;;;;;14.00;11.90;;;;;;;;;;5065452;28;24461;-63
2021/11/12 10:01:30;;;;;;;12.70;11.40;;;;;;;;;;5064821;28;24783;-63
2021/11/12 10:04:00;;;;;;;13.05;10.82;;;;;;;;;;5061201;28;24415;-62
2021/11/12 10:06:26;;;;;;;12.80;11.50;;;;;;;;;;5060505;28;24439;-62
2021/11/12 10:08:52;;;;;;;11.73;9.98;;;;;;;;;;5061466;28;24407;-62
2021/11/12 10:11:26;;;;;;;12.23;10.45;;;;;;;;;;5064860;28;24816;-61
2021/11/12 10:13:59;;;;;;;11.60;10.27;;;;;;;;;;5063544;28;24448;-62
2021/11/12 10:16:35;;;;;;;11.60;9.18;;;;;;;;;;5065376;28;24430;-62
2021/11/12 10:19:05;;;;;;;10.07;9.05;;;;;;;;;;5059900;28;24414;-63
2021/11/12 10:21:38;;;;;;;9.52;8.40;;;;;;;;;;5058297;28;24804;-62
2021/11/12 10:24:05;;;;;;;10.20;9.10;;;;;;;;;;5059355;28;24386;-62
2021/11/12 10:26:31;;;;;;;10.40;9.30;;;;;;;;;;5064797;28;24950;-62
2021/11/12 10:29:03;;;;;;;10.35;9.25;;;;;;;;;;5063266;28;24406;-62
2021/11/12 10:31:30;;;;;;;10.27;9.18;;;;;;;;;;5064601;28;24424;-62
2021/11/12 10:33:55;;;;;;;8.98;8.05;;;;;;;;;;5060119;28;24474;-62
2021/11/12 10:36:21;;;;;;;9.70;8.70;;;;;;;;;;5058538;28;24834;-62
2021/11/12 10:38:49;;;;;;;9.63;8.63;;;;;;;;;;5061416;28;24452;-63
2021/11/12 10:41:16;;;;;;;9.73;8.40;;;;;;;;;;5064727;28;24971;-62
2021/11/12 10:43:41;;;;;;;10.77;8.88;;;;;;;;;;5064236;28;24514;-62
2021/11/12 10:46:06;;;;;;;10.67;9.03;;;;;;;;;;5062016;28;24501;-62
2021/11/12 10:48:31;;;;;;;9.15;8.10;;;;;;;;;;5061924;28;24435;-63
2021/11/12 10:51:11;;;;;;;10.00;8.73;;;;;;;;;;5058934;28;24873;-63
2021/11/12 10:53:52;;;;;;;10.02;8.93;;;;;;;;;;5059276;28;24485;-62
2021/11/12 10:56:20;;;;;;;10.30;8.68;;;;;;;;;;5062786;28;24433;-63
2021/11/12 10:58:58;;;;;;;10.83;9.73;;;;;;;;;;5064257;28;24944;-64
2021/11/12 11:01:36;;;;;;;10.80;9.40;;;;;;;;;;5064095;28;24395;-63
2021/11/12 11:04:21;;;;;;;10.27;9.10;;;;;;;;;;5061938;28;24379;-62
2021/11/12 11:06:50;;;;;;;12.10;10.20;;;;;;;;;;5060375;28;24390;-62
2021/11/12 11:09:15;;;;;;;11.23;9.45;;;;;;;;;;5057839;28;24808;-63
2021/11/12 11:11:41;;;;;;;11.43;10.23;;;;;;;;;;5060519;28;24944;-63
2021/11/12 11:14:25;;;;;;;11.80;10.30;;;;;;;;;;5062073;28;24410;-62
2021/11/12 11:16:50;;;;;;;11.02;9.63;;;;;;;;;;5061933;28;25327;-62
2021/11/12 11:19:31;;;;;;;11.77;10.57;;;;;;;;;;5063673;28;24440;-62
2021/11/12 11:22:01;;;;;;;13.40;11.40;;;;;;;;;;5057813;28;24560;-62
2021/11/12 11:24:31;;;;;;;12.02;10.10;;;;;;;;;;5058271;28;24445;-62
2021/11/12 11:26:56;;;;;;;13.18;10.65;;;;;;;;;;5059780;28;25012;-62
2021/11/12 11:29:23;;;;;;;12.88;10.75;;;;;;;;;;5063705;28;24560;-62
2021/11/12 11:31:48;;;;;;;13.23;10.93;;;;;;;;;;5063429;28;24395;-62
2021/11/12 11:34:13;;;;;;;13.95;10.30;;;;;;;;;;5057889;28;24983;-62
2021/11/12 11:36:41;;;;;;;11.90;10.13;;;;;;;;;;5057883;28;25005;-62
2021/11/12 11:39:07;;;;;;;12.93;10.70;;;;;;;;;;5061394;28;24407;-62
2021/11/12 11:41:33;;;;;;;14.05;11.00;;;;;;;;;;5062923;28;24770;-62
2021/11/12 11:43:58;;;;;;;12.33;10.60;;;;;;;;;;5061094;28;24987;-63
2021/11/12 11:46:24;;;;;;;12.47;10.27;;;;;;;;;;5061676;28;24474;-63
2021/11/12 11:48:50;;;;;;;13.77;11.07;;;;;;;;;;5059527;28;24390;-64
2021/11/12 11:51:26;;;;;;;12.77;11.23;;;;;;;;;;5058109;28;24801;-63
2021/11/12 11:53:52;;;;;;;13.32;11.18;;;;;;;;;;5059027;28;24577;-63
2021/11/12 11:56:20;;;;;;;13.85;10.88;;;;;;;;;;5063061;28;25036;-63
2021/11/12 11:59:05;;;;;;;13.45;11.25;;;;;;;;;;5063093;28;24406;-62
2021/11/12 12:01:35;;;;;;;15.27;12.18;;;;;;;;;;5061003;28;24398;-62
2021/11/12 12:04:10;;;;;;;14.80;11.27;;;;;;;;;;5057326;28;24799;-62
2021/11/12 12:06:35;;;;;;;15.10;11.85;;;;;;;;;;5057647;28;24437;-62
2021/11/12 12:09:07;;;;;;;15.10;11.87;;;;;;;;;;5062868;28;24476;-64
2021/11/12 12:11:36;;;;;;;15.82;12.70;;;;;;;;;;5062690;28;24426;-62
2021/11/12 12:14:19;;;;;;;15.50;11.63;;;;;;;;;;5059208;28;24395;-62
2021/11/12 12:17:10;;;;;;;15.77;12.77;;;;;;;;;;5059286;28;24472;-63
2021/11/12 12:19:40;;;;;;;14.10;11.35;;;;;;;;;;5059072;28;24444;-62
2021/11/12 12:22:23;;;;;;;12.30;10.87;;;;;;;;;;5060109;28;25025;-62
2021/11/12 12:30:54;;;;;;;14.13;12.40;;;;;;;;;;5057142;28;24794;-61
2021/11/12 12:37:02;;;;;;;14.50;12.60;;;;;;;;;;5058685;28;24441;-62
2021/11/12 13:22:47;;;;;;;16.05;13.85;;;;;;;;;;5061313;28;24395;-63
2021/11/12 13:25:23;;;;;;;16.83;14.40;;;;;;;;;;5059763;28;24415;-65
2021/11/12 13:27:48;;;;;;;16.80;13.30;;;;;;;;;;5058333;28;24441;-63
2021/11/12 13:30:25;;;;;;;16.90;14.27;;;;;;;;;;5058475;28;24403;-63
2021/11/12 13:32:50;;;;;;;19.92;16.00;;;;;;;;;;5059809;28;24450;-63
2021/11/12 13:35:26;;;;;;;19.88;14.27;;;;;;;;;;5061501;28;24484;-65
2021/11/12 13:37:52;;;;;;;19.23;15.60;;;;;;;;;;5060134;28;24888;-64
2021/11/12 13:40:17;;;;;;;19.92;15.63;;;;;;;;;;5058507;28;24399;-64
2021/11/12 13:42:45;;;;;;;21.40;16.10;;;;;;;;;;5059865;28;24604;-64
2021/11/12 13:45:12;;;;;;;18.27;14.23;;;;;;;;;;5059894;28;24529;-63
2021/11/12 13:47:37;;;;;;;18.10;14.57;;;;;;;;;;5061367;28;24406;-64
2021/11/12 13:50:03;;;;;;;18.33;14.80;;;;;;;;;;5059482;28;24403;-63
2021/11/12 13:52:33;;;;;;;20.13;15.88;;;;;;;;;;5057716;28;24454;-63
2021/11/12 13:55:07;;;;;;;18.83;14.43;;;;;;;;;;5055849;28;24959;-64
2021/11/12 13:57:33;;;;;;;20.02;15.63;;;;;;;;;;5058216;28;24494;-64
2021/11/12 14:00:04;;;;;;;18.02;14.70;;;;;;;;;;5061414;28;24540;-64
2021/11/12 14:02:31;;;;;;;24.83;16.58;;;;;;;;;;5061130;28;24485;-64
2021/11/12 14:05:09;;;;;;;19.60;16.30;;;;;;;;;;5060240;28;24521;-63
2021/11/12 14:07:35;;;;;;;23.00;18.40;;;;;;;;;;5056116;28;24441;-64
2021/11/12 14:10:01;;;;;;;22.30;18.50;;;;;;;;;;5056097;28;24491;-64
2021/11/12 14:12:26;;;;;;;22.50;17.13;;;;;;;;;;5061264;28;24414;-63
2021/11/12 14:15:03;;;;;;;23.10;16.93;;;;;;;;;;5059975;28;24414;-64
2021/11/12 14:17:31;;;;;;;21.35;18.02;;;;;;;;;;5059873;28;24959;-63
2021/11/12 14:20:18;;;;;;;19.73;16.83;;;;;;;;;;5056019;28;24424;-62
2021/11/12 14:22:56;;;;;;;23.55;17.67;;;;;;;;;;5059887;28;25074;-62
2021/11/12 14:25:32;;;;;;;24.98;18.98;;;;;;;;;;5063143;28;24403;-62
2021/11/12 14:28:02;;;;;;;23.90;19.05;;;;;;;;;;5064806;28;24976;-62
2021/11/12 14:30:45;;;;;;;23.65;19.23;;;;;;;;;;5065066;28;24451;-62
2021/11/12 14:33:19;;;;;;;24.98;19.42;;;;;;;;;;5060122;28;24522;-62
2021/11/12 14:38:35;;;;;;;26.83;20.23;;;;;;;;;;5065242;28;24448;-63
2021/11/12 14:49:53;;;;;;;30.63;21.63;;;;;;;;;;5055023;28;24430;-64
2021/11/12 14:54:24;;;;;;;30.50;21.90;;;;;;;;;;5063198;28;24776;-64
2021/11/12 14:56:51;;;;;;;32.22;23.52;;;;;;;;;;5059602;28;24460;-64
2021/11/12 14:59:17;;;;;;;31.35;23.98;;;;;;;;;;5062635;28;24430;-63
2021/11/12 15:01:43;;;;;;;33.92;25.45;;;;;;;;;;5060178;28;24960;-63
2021/11/12 15:04:08;;;;;;;35.58;24.70;;;;;;;;;;5062418;28;24467;-62
2021/11/12 15:06:34;;;;;;;34.20;24.57;;;;;;;;;;5060971;28;24410;-62
2021/11/12 15:09:18;;;;;;;32.80;24.30;;;;;;;;;;5060586;28;24434;-62
2021/11/12 15:11:44;;;;;;;34.88;24.73;;;;;;;;;;5059152;28;24422;-62
2021/11/12 15:14:17;;;;;;;36.97;26.00;;;;;;;;;;5055525;28;24426;-63
2021/11/12 15:16:44;;;;;;;34.28;25.20;;;;;;;;;;5070096;28;24519;-63
2021/11/12 15:19:13;;;;;;;37.88;26.73;;;;;;;;;;5075211;28;24976;-63
2021/11/12 15:21:51;;;;;;;38.47;26.02;;;;;;;;;;5062253;28;24843;-63
2021/11/12 15:29:33;;;;;;;37.95;26.48;;;;;;;;;;5063429;28;24418;-62
2021/11/12 15:32:04;;;;;;;38.80;26.50;;;;;;;;;;5061982;28;24472;-62
2021/11/12 15:34:31;;;;;;;39.05;26.23;;;;;;;;;;5059022;28;24397;-63
2021/11/12 15:37:04;;;;;;;41.25;26.60;;;;;;;;;;5059996;28;24983;-62
2021/11/12 15:39:41;;;;;;;41.08;27.70;;;;;;;;;;5059400;28;24718;-63
2021/11/12 15:42:19;;;;;;;43.58;27.35;;;;;;;;;;5063530;28;24401;-63
2021/11/12 15:44:45;;;;;;;42.33;28.07;;;;;;;;;;5063675;28;24544;-63
2021/11/12 15:49:49;;;;;;;43.53;28.63;;;;;;;;;;5058649;28;24480;-63
2021/11/12 15:54:53;;;;;;;45.20;28.50;;;;;;;;;;5059432;28;24398;-63
2021/11/12 15:57:41;;;;;;;46.40;28.85;;;;;;;;;;5063019;28;24828;-63
2021/11/12 16:00:17;;;;;;;46.75;31.27;;;;;;;;;;5060282;28;24522;-63
2021/11/12 16:07:56;;;;;;;45.65;31.38;;;;;;;;;;5059314;28;24387;-63
2021/11/12 16:13:00;;;;;;;49.88;32.65;;;;;;;;;;5061391;28;24525;-63
2021/11/12 16:15:39;;;;;;;46.25;30.42;;;;;;;;;;5060463;28;24425;-63
2021/11/12 16:18:17;;;;;;;49.45;31.13;;;;;;;;;;5057220;28;24387;-63
2021/11/12 16:23:31;;;;;;;46.95;33.42;;;;;;;;;;5063079;28;24445;-63
2021/11/12 16:25:58;;;;;;;50.22;33.63;;;;;;;;;;5061016;28;24492;-63
2021/11/12 16:28:25;;;;;;;44.42;30.45;;;;;;;;;;5062463;28;24956;-63
2021/11/12 16:30:56;;;;;;;52.65;32.38;;;;;;;;;;5060378;28;24411;-63
2021/11/12 16:33:24;;;;;;;52.13;33.05;;;;;;;;;;5056653;28;24964;-63
2021/11/12 16:35:50;;;;;;;53.60;33.45;;;;;;;;;;5058889;28;24426;-63
2021/11/12 16:38:19;;;;;;;52.75;33.92;;;;;;;;;;5058909;28;24489;-64
2021/11/12 16:40:49;;;;;;;52.72;32.80;;;;;;;;;;5062046;28;24394;-63
2021/11/12 16:45:53;;;;;;;50.75;35.38;;;;;;;;;;5060183;28;25018;-63
2021/11/12 16:48:41;;;;;;;55.03;35.13;;;;;;;;;;5057174;28;24782;-63
2021/11/12 16:59:27;;;;;;;52.83;33.55;;;;;;;;;;4979764;28;25022;-63
2021/11/12 17:04:40;;;;;;;53.22;33.05;;;;;;;;;;5056696;28;24418;-63
2021/11/12 17:07:18;;;;;;;49.80;32.60;;;;;;;;;;5058826;28;24395;-63
2021/11/12 17:15:19;;;;;;;52.70;34.08;;;;;;;;;;5040276;28;24483;-63
2021/11/12 17:17:58;;;;;;;52.70;35.80;;;;;;;;;;5054308;28;24453;-63
2021/11/12 17:20:46;;;;;;;49.63;35.08;;;;;;;;;;5056125;28;24391;-64
2021/11/12 17:47:37;;;;;;;53.92;36.50;;;;;;;;;;5061297;28;25014;-63
2021/11/12 18:03:49;;;;;;;53.25;36.08;;;;;;;;;;5065226;28;24394;-62
2021/11/12 18:06:28;;;;;;;54.45;36.33;;;;;;;;;;5060838;28;24410;-62
2021/11/12 18:12:10;;;;;;;56.00;36.55;;;;;;;;;;5065278;28;24974;-62
2021/11/12 21:45:34;;;;;;;53.97;35.45;;;;;;;;;;5051236;28;24448;-62
2021/11/12 21:47:59;;;;;;;56.35;34.35;;;;;;;;;;5056339;28;24495;-62
2021/11/12 21:50:25;;;;;;;55.50;37.20;;;;;;;;;;5065209;28;24508;-63
2021/11/12 21:52:50;;;;;;;57.30;35.77;;;;;;;;;;5057184;28;24429;-61
2021/11/12 21:55:15;;;;;;;54.78;33.45;;;;;;;;;;5059399;28;24399;-62
2021/11/12 21:57:40;;;;;;;59.93;36.40;;;;;;;;;;5063417;28;24514;-63
2021/11/12 22:00:06;;;;;;;52.23;36.47;;;;;;;;;;5060760;28;24418;-63
2021/11/12 22:02:32;;;;;;;52.50;35.30;;;;;;;;;;5065225;28;24434;-64
2021/11/12 22:04:57;;;;;;;51.73;32.27;;;;;;;;;;5046405;28;24468;-63
2021/11/12 22:07:23;;;;;;;49.90;31.75;;;;;;;;;;5040772;28;24434;-62
2021/11/12 22:09:48;;;;;;;49.80;33.40;;;;;;;;;;5048365;28;25019;-63
2021/11/12 22:12:13;;;;;;;49.75;32.90;;;;;;;;;;5063406;28;24475;-62
2021/11/12 22:14:39;;;;;;;48.90;34.17;;;;;;;;;;5064849;28;24418;-63
2021/11/12 22:17:08;;;;;;;52.77;35.87;;;;;;;;;;5063271;28;24431;-62
2021/11/12 22:19:34;;;;;;;53.25;32.25;;;;;;;;;;5040382;28;24544;-61
2021/11/12 22:21:59;;;;;;;44.75;31.13;;;;;;;;;;5059166;28;24518;-66
2021/11/12 22:24:25;;;;;;;48.65;33.35;;;;;;;;;;5065390;28;25066;-62
2021/11/12 22:26:50;;;;;;;44.42;32.65;;;;;;;;;;5052804;28;24454;-62
2021/11/12 22:29:16;;;;;;;50.63;35.00;;;;;;;;;;5061905;28;24469;-63
2021/11/12 22:31:42;;;;;;;50.15;32.65;;;;;;;;;;5061415;28;24449;-62
2021/11/12 22:34:07;;;;;;;44.13;30.40;;;;;;;;;;5058932;28;24542;-63
2021/11/12 22:36:32;;;;;;;47.22;32.80;;;;;;;;;;5055198;28;24443;-62
2021/11/12 22:38:58;;;;;;;50.67;31.97;;;;;;;;;;5057778;28;24564;-63
2021/11/12 22:41:23;;;;;;;48.40;32.93;;;;;;;;;;5063575;28;24406;-63
2021/11/12 22:43:58;;;;;;;47.17;33.50;;;;;;;;;;5060546;28;24831;-63
2021/11/12 22:46:24;;;;;;;47.17;33.88;;;;;;;;;;5059945;28;24493;-64
2021/11/12 22:48:50;;;;;;;46.70;33.60;;;;;;;;;;5053444;28;24426;-63
2021/11/12 22:51:15;;;;;;;46.87;32.43;;;;;;;;;;5063866;28;24782;-63
2021/11/12 22:53:40;;;;;;;44.22;32.30;;;;;;;;;;5064729;28;24510;-63
2021/11/12 22:56:05;;;;;;;44.70;33.13;;;;;;;;;;5058994;28;24972;-63
2021/11/12 22:58:30;;;;;;;42.70;32.22;;;;;;;;;;5046331;28;25053;-64
2021/11/12 23:01:07;;;;;;;48.22;33.15;;;;;;;;;;5061886;28;24440;-63
2021/11/12 23:03:32;;;;;;;47.10;31.50;;;;;;;;;;5064801;28;24889;-63
2021/11/12 23:05:57;;;;;;;46.03;32.83;;;;;;;;;;5061895;28;25040;-64
2021/11/12 23:08:22;;;;;;;46.88;33.08;;;;;;;;;;5057456;28;24874;-63
2021/11/12 23:10:47;;;;;;;48.13;33.37;;;;;;;;;;5061710;28;25249;-62
2021/11/12 23:13:13;;;;;;;48.30;33.07;;;;;;;;;;5061945;28;24446;-63
2021/11/12 23:15:39;;;;;;;47.30;32.07;;;;;;;;;;5064111;28;24430;-62
2021/11/12 23:18:05;;;;;;;47.08;34.38;;;;;;;;;;5059144;28;24461;-61
2021/11/12 23:20:31;;;;;;;44.60;33.40;;;;;;;;;;5050895;28;24769;-62
2021/11/12 23:22:56;;;;;;;43.60;31.17;;;;;;;;;;5061630;28;24896;-62
2021/11/12 23:25:21;;;;;;;45.33;32.97;;;;;;;;;;5064382;28;24446;-62
2021/11/12 23:27:46;;;;;;;44.20;33.20;;;;;;;;;;5063891;28;24429;-62
2021/11/12 23:30:12;;;;;;;46.67;34.40;;;;;;;;;;5061055;28;24513;-63
2021/11/12 23:32:37;;;;;;;43.50;33.90;;;;;;;;;;5051186;28;24450;-62
2021/11/12 23:35:04;;;;;;;44.90;30.70;;;;;;;;;;5063123;28;24518;-63
2021/11/12 23:37:29;;;;;;;46.45;31.27;;;;;;;;;;5063793;28;24499;-62
2021/11/12 23:39:54;;;;;;;46.67;33.72;;;;;;;;;;5062855;28;25130;-62